createdAt,value
2022-08-17T00:01:00.350Z,100550.16
2022-08-17T00:02:41.119Z,100544.25
2022-08-17T00:04:15.022Z,100541.38
2022-08-17T00:05:53.805Z,100543.91
2022-08-17T00:07:25.589Z,100543.09
2022-08-17T00:09:00.229Z,100555.03
2022-08-17T00:10:32.486Z,100540.84
2022-08-17T00:12:42.885Z,100549.94
2022-08-17T00:14:02.567Z,100545.91
2022-08-17T00:15:34.625Z,100542.00
2022-08-17T00:17:06.695Z,100537.63
2022-08-17T00:19:01.506Z,100540.16
2022-08-17T00:20:35.014Z,100538.16
2022-08-17T00:22:33.121Z,100536.13
2022-08-17T00:23:59.513Z,100531.91
2022-08-17T00:25:31.865Z,100538.84
2022-08-17T00:27:05.059Z,100540.00
2022-08-17T00:28:37.825Z,100535.28
2022-08-17T00:30:12.405Z,100542.38
2022-08-17T00:31:44.300Z,100534.28
2022-08-17T00:33:18.459Z,100540.53
2022-08-17T00:34:50.253Z,100545.06
2022-08-17T00:36:23.990Z,100535.13
2022-08-17T00:37:55.750Z,100540.69
2022-08-17T00:39:27.479Z,100536.13
2022-08-17T00:41:01.686Z,100536.78
2022-08-17T00:42:34.898Z,100540.63
2022-08-17T00:44:08.591Z,100543.63
2022-08-17T00:45:40.688Z,100536.75
2022-08-17T00:47:12.471Z,100539.25
2022-08-17T00:48:45.178Z,100533.69
2022-08-17T00:50:19.417Z,100528.47
2022-08-17T00:51:55.022Z,100533.06
2022-08-17T00:53:30.701Z,100523.59
2022-08-17T00:55:04.795Z,100522.91
2022-08-17T00:56:41.592Z,100527.03
2022-08-17T00:58:15.005Z,100524.16
2022-08-17T00:59:56.037Z,100516.69
2022-08-17T01:01:36.826Z,100524.75
2022-08-17T01:03:11.883Z,100522.53
2022-08-17T01:04:46.920Z,100526.53
2022-08-17T01:06:20.132Z,100524.00
2022-08-17T01:07:52.962Z,100522.31
2022-08-17T01:09:25.495Z,100511.19
2022-08-17T01:11:02.237Z,100513.88
2022-08-17T01:12:36.993Z,100515.56
2022-08-17T01:14:10.165Z,100515.88
2022-08-17T01:15:48.608Z,100514.88
2022-08-17T01:17:20.724Z,100513.88
2022-08-17T01:18:56.981Z,100517.25
2022-08-17T01:20:29.509Z,100519.09
2022-08-17T01:22:06.404Z,100525.19
2022-08-17T01:23:42.093Z,100525.00
2022-08-17T01:25:14.558Z,100523.16
2022-08-17T01:26:47.142Z,100526.03
2022-08-17T01:28:53.040Z,100528.19
2022-08-17T01:30:58.316Z,100524.28
2022-08-17T01:32:08.138Z,100529.81
2022-08-17T01:33:40.420Z,100523.88
2022-08-17T01:35:12.596Z,100525.22
2022-08-17T01:36:47.773Z,100520.16
2022-08-17T01:38:19.708Z,100519.31
2022-08-17T01:40:05.680Z,100518.06
2022-08-17T01:41:40.383Z,100504.91
2022-08-17T01:43:16.098Z,100516.53
2022-08-17T01:44:47.862Z,100514.69
2022-08-17T01:46:24.182Z,100516.69
2022-08-17T01:47:56.895Z,100519.38
2022-08-17T01:49:28.791Z,100520.22
2022-08-17T01:51:01.120Z,100525.75
2022-08-17T01:52:32.880Z,100518.69
2022-08-17T01:54:08.586Z,100521.69
2022-08-17T01:55:47.217Z,100521.84
2022-08-17T01:57:18.909Z,100517.09
2022-08-17T01:58:50.756Z,100515.41
2022-08-17T02:00:22.493Z,100513.03
2022-08-17T02:01:54.263Z,100510.94
2022-08-17T02:03:26.243Z,100513.78
2022-08-17T02:04:58.277Z,100518.66
2022-08-17T02:06:52.545Z,100518.09
2022-08-17T02:08:39.547Z,100513.31
2022-08-17T02:10:19.806Z,100517.16
2022-08-17T02:11:54.096Z,100515.81
2022-08-17T02:13:29.604Z,100515.13
2022-08-17T02:15:01.310Z,100512.72
2022-08-17T02:16:36.780Z,100512.31
2022-08-17T02:18:10.588Z,100509.78
2022-08-17T02:19:42.737Z,100510.97
2022-08-17T02:21:14.777Z,100506.25
2022-08-17T02:22:47.664Z,100514.16
2022-08-17T02:24:58.754Z,100508.63
2022-08-17T02:26:23.875Z,100506.78
2022-08-17T02:27:59.241Z,100508.78
2022-08-17T02:29:31.069Z,100509.97
2022-08-17T02:31:05.190Z,100511.97
2022-08-17T02:32:37.424Z,100516.06
2022-08-17T02:34:09.309Z,100514.66
2022-08-17T02:35:42.852Z,100521.03
2022-08-17T02:37:17.746Z,100522.03
2022-08-17T02:38:49.566Z,100517.00
2022-08-17T02:40:36.116Z,100522.50
2022-08-17T02:42:08.676Z,100516.44
2022-08-17T02:43:41.857Z,100523.38
2022-08-17T02:45:16.510Z,100514.31
2022-08-17T02:46:48.307Z,100514.44
2022-08-17T02:48:31.629Z,100504.84
2022-08-17T02:50:05.107Z,100511.34
2022-08-17T02:51:36.858Z,100511.22
2022-08-17T02:53:08.553Z,100514.59
2022-08-17T02:54:42.422Z,100512.59
2022-08-17T02:56:14.379Z,100516.00
2022-08-17T02:57:46.751Z,100524.91
2022-08-17T02:59:19.950Z,100522.03
2022-08-17T03:00:51.658Z,100507.75
2022-08-17T03:02:23.378Z,100513.97
2022-08-17T03:03:55.221Z,100513.44
2022-08-17T03:05:29.386Z,100512.19
2022-08-17T03:07:01.177Z,100508.81
2022-08-17T03:08:32.977Z,100506.13
2022-08-17T03:10:05.207Z,100507.41
2022-08-17T03:11:36.875Z,100495.31
2022-08-17T03:13:08.809Z,100504.66
2022-08-17T03:14:43.460Z,100501.88
2022-08-17T03:16:15.885Z,100505.31
2022-08-17T03:17:47.592Z,100509.13
2022-08-17T03:19:19.280Z,100500.69
2022-08-17T03:20:51.467Z,100502.69
2022-08-17T03:22:36.457Z,100505.38
2022-08-17T03:24:09.323Z,100495.47
2022-08-17T03:25:44.083Z,100500.53
2022-08-17T03:27:15.853Z,100492.47
2022-08-17T03:28:47.609Z,100498.84
2022-08-17T03:30:22.509Z,100494.84
2022-08-17T03:31:54.184Z,100499.09
2022-08-17T03:33:25.884Z,100493.00
2022-08-17T03:34:59.685Z,100488.63
2022-08-17T03:36:31.387Z,100499.53
2022-08-17T03:38:08.999Z,100498.00
2022-08-17T03:39:40.787Z,100498.31
2022-08-17T03:41:13.840Z,100493.22
2022-08-17T03:42:45.662Z,100489.84
2022-08-17T03:44:17.370Z,100497.19
2022-08-17T03:46:11.046Z,100497.19
2022-08-17T03:48:17.782Z,100496.63
2022-08-17T03:50:10.434Z,100499.19
2022-08-17T03:52:00.853Z,100500.88
2022-08-17T03:53:51.146Z,100497.47
2022-08-17T03:55:41.339Z,100503.84
2022-08-17T03:57:13.313Z,100496.91
2022-08-17T03:58:45.801Z,100499.75
2022-08-17T04:00:17.739Z,100497.34
2022-08-17T04:01:53.580Z,100505.56
2022-08-17T04:03:26.200Z,100502.88
2022-08-17T04:04:58.745Z,100513.34
2022-08-17T04:06:30.458Z,100507.41
2022-08-17T04:08:02.392Z,100513.91
2022-08-17T04:09:37.202Z,100512.22
2022-08-17T04:11:09.711Z,100508.69
2022-08-17T04:12:44.859Z,100500.47
2022-08-17T04:14:16.594Z,100505.72
2022-08-17T04:15:49.156Z,100502.03
2022-08-17T04:17:24.128Z,100507.41
2022-08-17T04:18:56.026Z,100502.03
2022-08-17T04:20:28.526Z,100505.41
2022-08-17T04:22:00.376Z,100509.94
2022-08-17T04:23:34.932Z,100509.94
2022-08-17T04:25:13.599Z,100518.16
2022-08-17T04:26:53.903Z,100527.47
2022-08-17T04:28:26.232Z,100533.19
2022-08-17T04:29:58.584Z,100531.34
2022-08-17T04:31:30.510Z,100535.41
2022-08-17T04:33:07.453Z,100528.47
2022-08-17T04:34:39.629Z,100533.53
2022-08-17T04:36:12.964Z,100537.50
2022-08-17T04:37:45.287Z,100534.53
2022-08-17T04:39:17.041Z,100529.69
2022-08-17T04:41:07.411Z,100530.78
2022-08-17T04:42:39.143Z,100541.78
2022-08-17T04:44:11.534Z,100543.72
2022-08-17T04:45:55.662Z,100538.31
2022-08-17T04:47:28.201Z,100541.78
2022-08-17T04:49:04.048Z,100541.56
2022-08-17T04:50:37.399Z,100539.84
2022-08-17T04:52:29.755Z,100553.66
2022-08-17T04:54:06.287Z,100547.53
2022-08-17T04:55:38.074Z,100538.00
2022-08-17T04:57:09.848Z,100538.38
2022-08-17T04:58:41.630Z,100535.94
2022-08-17T05:00:14.058Z,100538.84
2022-08-17T05:01:47.641Z,100535.53
2022-08-17T05:03:19.440Z,100530.16
2022-08-17T05:04:52.544Z,100535.53
2022-08-17T05:06:28.103Z,100533.00
2022-08-17T05:08:02.395Z,100532.00
2022-08-17T05:09:34.077Z,100528.78
2022-08-17T05:11:06.340Z,100532.63
2022-08-17T05:12:38.176Z,100530.91
2022-08-17T05:14:10.081Z,100531.78
2022-08-17T05:15:44.878Z,100537.69
2022-08-17T05:17:16.968Z,100536.69
2022-08-17T05:18:49.569Z,100537.00
2022-08-17T05:20:23.781Z,100534.00
2022-08-17T05:21:55.463Z,100533.84
2022-08-17T05:23:32.723Z,100536.69
2022-08-17T05:25:14.915Z,100544.31
2022-08-17T05:26:46.818Z,100532.56
2022-08-17T05:28:26.576Z,100532.69
2022-08-17T05:29:59.712Z,100532.41
2022-08-17T05:31:31.432Z,100540.84
2022-08-17T05:33:05.623Z,100536.69
2022-08-17T05:34:37.454Z,100538.72
2022-08-17T05:36:41.684Z,100539.63
2022-08-17T05:38:04.895Z,100543.28
2022-08-17T05:39:36.705Z,100552.38
2022-08-17T05:41:09.124Z,100571.69
2022-08-17T05:42:40.928Z,100578.75
2022-08-17T05:44:12.706Z,100570.19
2022-08-17T05:45:55.828Z,100564.38
2022-08-17T05:47:30.306Z,100595.84
2022-08-17T05:49:05.581Z,100600.22
2022-08-17T05:50:48.055Z,100586.78
2022-08-17T05:52:30.706Z,100572.31
2022-08-17T05:54:15.995Z,100571.00
2022-08-17T05:55:54.435Z,100579.22
2022-08-17T05:57:53.053Z,100573.69
2022-08-17T05:59:37.476Z,100579.97
2022-08-17T06:01:19.615Z,100585.28
2022-08-17T06:03:00.670Z,100578.94
2022-08-17T06:04:47.524Z,100581.03
2022-08-17T06:06:31.713Z,100581.38
2022-08-17T06:08:17.491Z,100585.28
2022-08-17T06:10:01.235Z,100582.28
2022-08-17T06:11:38.886Z,100586.00
2022-08-17T06:13:31.607Z,100586.59
2022-08-17T06:15:26.211Z,100591.31
2022-08-17T06:17:02.284Z,100584.25
2022-08-17T06:18:41.631Z,100583.91
2022-08-17T06:20:15.639Z,100580.22
2022-08-17T06:21:50.959Z,100587.31
2022-08-17T06:23:29.373Z,100580.91
2022-08-17T06:25:10.180Z,100583.28
2022-08-17T06:26:45.409Z,100579.59
2022-08-17T06:28:27.426Z,100582.47
2022-08-17T06:30:08.122Z,100579.44
2022-08-17T06:31:40.757Z,100587.69
2022-08-17T06:33:20.948Z,100595.31
2022-08-17T06:34:53.548Z,100586.38
2022-08-17T06:36:40.462Z,100579.66
2022-08-17T06:38:21.837Z,100587.44
2022-08-17T06:40:28.568Z,100584.75
2022-08-17T06:42:10.150Z,100582.69
2022-08-17T06:44:12.641Z,100588.47
2022-08-17T06:46:11.355Z,100594.53
2022-08-17T06:47:49.317Z,100599.09
2022-08-17T06:49:26.113Z,100599.09
2022-08-17T06:51:02.381Z,100601.09
2022-08-17T06:52:46.723Z,100613.75
2022-08-17T06:54:36.409Z,100603.97
2022-08-17T06:56:12.824Z,100612.38
2022-08-17T06:57:49.307Z,100612.38
2022-08-17T06:59:26.200Z,100613.91
2022-08-17T07:01:08.242Z,100621.31
2022-08-17T07:03:02.465Z,100617.09
2022-08-17T07:04:35.871Z,100619.81
2022-08-17T07:06:12.720Z,100625.84
2022-08-17T07:08:04.338Z,100623.53
2022-08-17T07:09:37.386Z,100616.13
2022-08-17T07:11:14.355Z,100621.53
2022-08-17T07:12:48.283Z,100625.53
2022-08-17T07:14:30.821Z,100614.41
2022-08-17T07:16:13.103Z,100622.97
2022-08-17T07:17:48.378Z,100620.81
2022-08-17T07:19:26.618Z,100627.38
2022-08-17T07:21:04.930Z,100626.69
2022-08-17T07:22:57.630Z,100623.16
2022-08-17T07:24:43.287Z,100631.44
2022-08-17T07:26:16.346Z,100627.06
2022-08-17T07:27:52.809Z,100628.75
2022-08-17T07:29:24.775Z,100625.53
2022-08-17T07:30:56.601Z,100626.50
2022-08-17T07:32:34.164Z,100620.03
2022-08-17T07:34:14.475Z,100618.88
2022-08-17T07:35:48.338Z,100626.59
2022-08-17T07:37:20.427Z,100612.88
2022-08-17T07:38:56.615Z,100608.88
2022-08-17T07:40:31.944Z,100609.88
2022-08-17T07:42:05.534Z,100606.19
2022-08-17T07:43:45.556Z,100611.28
2022-08-17T07:45:36.429Z,100620.78
2022-08-17T07:47:35.423Z,100637.47
2022-08-17T07:49:21.533Z,100637.94
2022-08-17T07:50:53.494Z,100634.53
2022-08-17T07:52:50.895Z,100631.81
2022-08-17T07:54:30.197Z,100639.09
2022-08-17T07:56:01.937Z,100635.22
2022-08-17T07:57:36.126Z,100648.41
2022-08-17T07:59:14.548Z,100647.44
2022-08-17T08:00:46.637Z,100656.25
2022-08-17T08:02:31.916Z,100660.53
2022-08-17T08:04:59.074Z,100660.75
2022-08-17T08:06:23.592Z,100664.13
2022-08-17T08:07:57.724Z,100655.22
2022-08-17T08:09:42.614Z,100655.41
2022-08-17T08:11:28.194Z,100657.13
2022-08-17T08:13:09.007Z,100656.81
2022-08-17T08:14:56.114Z,100656.00
2022-08-17T08:16:31.534Z,100654.16
2022-08-17T08:18:18.666Z,100660.94
2022-08-17T08:20:42.496Z,100673.09
2022-08-17T08:22:10.261Z,100660.97
2022-08-17T08:23:49.906Z,100663.66
2022-08-17T08:25:27.093Z,100674.97
2022-08-17T08:27:12.612Z,100669.88
2022-08-17T08:28:54.746Z,100672.75
2022-08-17T08:30:28.165Z,100674.75
2022-08-17T08:32:16.314Z,100679.66
2022-08-17T08:33:57.275Z,100676.47
2022-08-17T08:35:33.698Z,100683.56
2022-08-17T08:37:18.006Z,100675.28
2022-08-17T08:38:58.583Z,100682.81
2022-08-17T08:40:43.427Z,100689.91
2022-08-17T08:42:24.608Z,100677.94
2022-08-17T08:44:08.216Z,100674.75
2022-08-17T08:45:50.336Z,100671.06
2022-08-17T08:47:35.258Z,100680.16
2022-08-17T08:50:01.980Z,100677.25
2022-08-17T08:51:40.630Z,100685.19
2022-08-17T08:53:25.341Z,100683.66
2022-08-17T08:55:05.420Z,100683.28
2022-08-17T08:56:58.952Z,100678.41
2022-08-17T08:58:50.475Z,100674.50
2022-08-17T09:00:25.670Z,100672.50
2022-08-17T09:02:07.143Z,100677.72
2022-08-17T09:03:53.969Z,100669.31
2022-08-17T09:05:39.193Z,100671.31
2022-08-17T09:07:22.384Z,100673.00
2022-08-17T09:09:07.331Z,100677.56
2022-08-17T09:10:52.298Z,100674.88
2022-08-17T09:12:33.558Z,100665.75
2022-08-17T09:14:21.692Z,100666.59
2022-08-17T09:15:59.033Z,100668.63
2022-08-17T09:17:38.899Z,100679.56
2022-08-17T09:19:17.190Z,100671.81
2022-08-17T09:20:55.488Z,100661.84
2022-08-17T09:22:33.849Z,100670.63
2022-08-17T09:24:12.862Z,100673.66
2022-08-17T09:25:50.785Z,100670.28
2022-08-17T09:27:30.527Z,100667.72
2022-08-17T09:29:08.644Z,100670.94
2022-08-17T09:30:44.041Z,100674.66
2022-08-17T09:32:20.449Z,100673.34
2022-08-17T09:33:55.408Z,100674.88
2022-08-17T09:35:36.683Z,100682.44
2022-08-17T09:37:19.214Z,100680.06
2022-08-17T09:39:00.278Z,100693.72
2022-08-17T09:40:38.365Z,100685.47
2022-08-17T09:42:19.823Z,100688.84
2022-08-17T09:43:58.617Z,100691.53
2022-08-17T09:45:34.173Z,100692.88
2022-08-17T09:47:11.716Z,100693.38
2022-08-17T09:48:50.322Z,100689.16
2022-08-17T09:51:03.335Z,100694.69
2022-08-17T09:52:21.821Z,100687.94
2022-08-17T09:53:54.205Z,100688.09
2022-08-17T09:55:43.414Z,100685.38
2022-08-17T09:57:32.035Z,100687.06
2022-08-17T09:59:27.447Z,100698.56
2022-08-17T10:01:17.862Z,100695.00
2022-08-17T10:03:18.733Z,100698.56
2022-08-17T10:04:58.584Z,100692.16
2022-08-17T10:06:35.467Z,100700.09
2022-08-17T10:08:15.067Z,100702.41
2022-08-17T10:09:55.739Z,100707.28
2022-08-17T10:11:52.269Z,100696.50
2022-08-17T10:13:34.347Z,100699.88
2022-08-17T10:15:22.499Z,100706.66
2022-08-17T10:17:01.998Z,100704.97
2022-08-17T10:18:49.532Z,100707.97
2022-08-17T10:20:27.586Z,100715.72
2022-08-17T10:22:34.985Z,100716.72
2022-08-17T10:24:31.642Z,100714.03
2022-08-17T10:26:15.974Z,100715.72
2022-08-17T10:27:52.479Z,100717.75
2022-08-17T10:29:46.229Z,100714.53
2022-08-17T10:31:34.862Z,100714.53
2022-08-17T10:33:15.545Z,100711.84
2022-08-17T10:35:02.709Z,100720.97
2022-08-17T10:36:48.000Z,100716.56
2022-08-17T10:38:37.036Z,100726.38
2022-08-17T10:40:24.581Z,100720.63
2022-08-17T10:42:02.601Z,100720.44
2022-08-17T10:43:55.749Z,100716.16
2022-08-17T10:46:27.783Z,100716.16
2022-08-17T10:48:04.718Z,100709.94
2022-08-17T10:49:38.390Z,100707.47
2022-08-17T10:51:12.470Z,100704.38
2022-08-17T10:52:49.283Z,100690.34
2022-08-17T10:54:40.437Z,100683.50
2022-08-17T10:56:21.715Z,100679.31
2022-08-17T10:58:20.869Z,100672.84
2022-08-17T10:59:54.306Z,100664.16
2022-08-17T11:02:04.145Z,100660.22
2022-08-17T11:03:35.998Z,100655.19
2022-08-17T11:05:18.294Z,100657.78
2022-08-17T11:07:02.222Z,100659.16
2022-08-17T11:09:10.634Z,100660.38
2022-08-17T11:11:20.864Z,100652.59
2022-08-17T11:13:01.814Z,100661.44
2022-08-17T11:14:47.227Z,100661.41
2022-08-17T11:16:47.941Z,100667.91
2022-08-17T11:19:10.063Z,100668.00
2022-08-17T11:21:20.710Z,100663.41
2022-08-17T11:23:43.028Z,100668.31
2022-08-17T11:25:19.218Z,100669.16
2022-08-17T11:27:04.948Z,100673.13
2022-08-17T11:28:48.711Z,100685.41
2022-08-17T11:30:44.497Z,100685.56
2022-08-17T11:32:32.089Z,100689.56
2022-08-17T11:34:06.237Z,100701.31
2022-08-17T11:35:47.125Z,100702.56
2022-08-17T11:37:41.686Z,100704.31
2022-08-17T11:39:35.410Z,100712.19
2022-08-17T11:41:20.033Z,100707.56
2022-08-17T11:43:10.649Z,100702.53
2022-08-17T11:44:51.167Z,100708.09
2022-08-17T11:46:52.676Z,100708.28
2022-08-17T11:48:54.021Z,100699.53
2022-08-17T11:50:54.995Z,100714.94
2022-08-17T11:52:39.067Z,100714.22
2022-08-17T11:54:34.097Z,100713.03
2022-08-17T11:56:09.463Z,100703.94
2022-08-17T11:58:00.152Z,100714.91
2022-08-17T11:59:58.662Z,100711.03
2022-08-17T12:01:55.650Z,100714.69
2022-08-17T12:03:55.203Z,100719.28
2022-08-17T12:05:32.868Z,100728.88
2022-08-17T12:07:09.064Z,100731.91
2022-08-17T12:08:43.603Z,100724.97
2022-08-17T12:10:21.440Z,100727.91
2022-08-17T12:12:11.944Z,100728.88
2022-08-17T12:13:51.927Z,100731.94
2022-08-17T12:15:28.999Z,100730.34
2022-08-17T12:17:03.943Z,100725.34
2022-08-17T12:18:39.415Z,100726.41
2022-08-17T12:20:18.528Z,100730.69
2022-08-17T12:22:00.716Z,100739.13
2022-08-17T12:23:40.852Z,100725.16
2022-08-17T12:25:22.313Z,100730.25
2022-08-17T12:26:58.748Z,100740.09
2022-08-17T12:28:33.404Z,100739.31
2022-08-17T12:30:12.032Z,100747.22
2022-08-17T12:31:47.134Z,100740.81
2022-08-17T12:33:25.790Z,100743.25
2022-08-17T12:35:00.743Z,100735.66
2022-08-17T12:36:33.786Z,100735.66
2022-08-17T12:38:26.637Z,100730.75
2022-08-17T12:40:03.595Z,100725.53
2022-08-17T12:41:38.898Z,100738.38
2022-08-17T12:43:21.279Z,100734.97
2022-08-17T12:44:53.040Z,100731.34
2022-08-17T12:46:26.155Z,100737.13
2022-08-17T12:48:04.116Z,100728.56
2022-08-17T12:49:37.589Z,100735.97
2022-08-17T12:51:12.635Z,100742.97
2022-08-17T12:52:44.534Z,100740.69
2022-08-17T12:54:26.878Z,100742.06
2022-08-17T12:56:00.278Z,100737.09
2022-08-17T12:57:41.089Z,100729.50
2022-08-17T12:59:12.793Z,100734.22
2022-08-17T13:00:50.542Z,100722.81
2022-08-17T13:02:30.164Z,100727.63
2022-08-17T13:04:02.003Z,100719.91
2022-08-17T13:05:35.975Z,100731.72
2022-08-17T13:07:07.724Z,100737.47
2022-08-17T13:08:43.085Z,100731.50
2022-08-17T13:10:23.248Z,100724.69
2022-08-17T13:11:59.406Z,100730.41
2022-08-17T13:13:35.927Z,100734.66
2022-08-17T13:15:16.952Z,100740.19
2022-08-17T13:16:53.645Z,100746.28
2022-08-17T13:18:39.796Z,100744.59
2022-08-17T13:20:15.044Z,100748.31
2022-08-17T13:21:49.229Z,100753.38
2022-08-17T13:23:21.116Z,100747.22
2022-08-17T13:24:55.019Z,100755.13
2022-08-17T13:26:32.463Z,100753.47
2022-08-17T13:28:04.349Z,100754.03
2022-08-17T13:29:39.434Z,100758.94
2022-08-17T13:31:21.554Z,100753.69
2022-08-17T13:32:54.148Z,100745.41
2022-08-17T13:34:36.943Z,100742.88
2022-08-17T13:36:30.136Z,100739.81
2022-08-17T13:38:06.442Z,100728.78
2022-08-17T13:39:41.697Z,100738.72
2022-08-17T13:41:33.555Z,100726.38
2022-08-17T13:43:05.450Z,100721.63
2022-08-17T13:44:39.601Z,100729.06
2022-08-17T13:46:17.616Z,100731.81
2022-08-17T13:47:49.541Z,100731.31
2022-08-17T13:49:21.711Z,100727.88
2022-08-17T13:51:39.361Z,100740.75
2022-08-17T13:53:19.954Z,100736.03
2022-08-17T13:54:52.063Z,100737.38
2022-08-17T13:56:39.392Z,100731.13
2022-08-17T13:58:11.715Z,100735.25
2022-08-17T13:59:54.749Z,100738.69
2022-08-17T14:01:33.353Z,100739.66
2022-08-17T14:03:05.739Z,100743.88
2022-08-17T14:04:41.248Z,100741.13
2022-08-17T14:06:23.711Z,100739.38
2022-08-17T14:08:07.580Z,100749.13
2022-08-17T14:09:47.800Z,100744.31
2022-08-17T14:11:21.354Z,100748.34
2022-08-17T14:12:53.319Z,100749.28
2022-08-17T14:14:25.925Z,100746.34
2022-08-17T14:15:57.596Z,100737.47
2022-08-17T14:17:35.036Z,100736.31
2022-08-17T14:19:11.471Z,100731.41
2022-08-17T14:20:44.161Z,100726.88
2022-08-17T14:22:23.581Z,100730.63
2022-08-17T14:23:55.316Z,100727.19
2022-08-17T14:25:29.351Z,100725.13
2022-08-17T14:27:04.009Z,100721.81
2022-08-17T14:28:36.476Z,100726.38
2022-08-17T14:30:09.930Z,100733.88
2022-08-17T14:31:41.603Z,100727.84
2022-08-17T14:33:14.518Z,100724.31
2022-08-17T14:34:47.284Z,100730.75
2022-08-17T14:36:19.061Z,100726.00
2022-08-17T14:37:53.124Z,100724.47
2022-08-17T14:39:25.293Z,100721.59
2022-08-17T14:40:57.313Z,100715.03
2022-08-17T14:42:33.108Z,100719.09
2022-08-17T14:44:05.732Z,100723.34
2022-08-17T14:45:37.527Z,100708.66
2022-08-17T14:47:14.942Z,100716.94
2022-08-17T14:48:47.143Z,100716.75
2022-08-17T14:50:21.027Z,100715.22
2022-08-17T14:51:54.113Z,100719.28
2022-08-17T14:53:27.209Z,100707.50
2022-08-17T14:54:58.994Z,100709.81
2022-08-17T14:56:35.354Z,100707.75
2022-08-17T14:58:09.927Z,100710.97
2022-08-17T14:59:41.639Z,100706.75
2022-08-17T15:01:14.027Z,100708.72
2022-08-17T15:02:48.761Z,100698.56
2022-08-17T15:04:20.417Z,100706.81
2022-08-17T15:05:52.233Z,100704.50
2022-08-17T15:07:26.132Z,100701.13
2022-08-17T15:09:04.181Z,100707.00
2022-08-17T15:10:36.736Z,100694.94
2022-08-17T15:12:08.801Z,100703.34
2022-08-17T15:13:52.500Z,100689.31
2022-08-17T15:15:25.422Z,100692.59
2022-08-17T15:16:57.161Z,100684.88
2022-08-17T15:18:29.588Z,100684.56
2022-08-17T15:20:01.356Z,100684.44
2022-08-17T15:21:33.700Z,100685.75
2022-08-17T15:23:06.940Z,100682.44
2022-08-17T15:24:39.984Z,100680.75
2022-08-17T15:26:11.705Z,100682.09
2022-08-17T15:27:44.029Z,100681.72
2022-08-17T15:29:15.836Z,100678.44
2022-08-17T15:30:47.567Z,100675.03
2022-08-17T15:32:27.253Z,100678.59
2022-08-17T15:33:59.365Z,100679.84
2022-08-17T15:35:32.972Z,100671.88
2022-08-17T15:37:04.867Z,100686.28
2022-08-17T15:38:39.253Z,100683.16
2022-08-17T15:40:13.315Z,100671.88
2022-08-17T15:41:45.086Z,100669.84
2022-08-17T15:43:23.301Z,100671.06
2022-08-17T15:44:59.983Z,100674.41
2022-08-17T15:46:31.783Z,100666.28
2022-08-17T15:48:08.879Z,100683.75
2022-08-17T15:49:41.619Z,100670.66
2022-08-17T15:51:15.533Z,100662.94
2022-08-17T15:52:47.550Z,100669.53
2022-08-17T15:54:22.828Z,100659.63
2022-08-17T15:55:57.092Z,100670.47
2022-08-17T15:57:28.807Z,100673.66
2022-08-17T15:59:01.102Z,100666.22
2022-08-17T16:00:43.511Z,100667.06
2022-08-17T16:03:13.615Z,100680.19
2022-08-17T16:04:30.401Z,100682.50
2022-08-17T16:06:03.433Z,100679.88
2022-08-17T16:07:35.431Z,100683.94
2022-08-17T16:09:07.161Z,100679.56
2022-08-17T16:10:39.398Z,100678.22
2022-08-17T16:12:14.805Z,100678.25
2022-08-17T16:13:54.473Z,100679.22
2022-08-17T16:15:26.833Z,100690.34
2022-08-17T16:16:59.081Z,100690.34
2022-08-17T16:18:31.611Z,100691.75
2022-08-17T16:20:04.753Z,100700.03
2022-08-17T16:21:42.647Z,100702.56
2022-08-17T16:23:20.116Z,100698.84
2022-08-17T16:24:57.361Z,100690.44
2022-08-17T16:26:30.797Z,100696.16
2022-08-17T16:28:04.365Z,100700.72
2022-08-17T16:29:38.545Z,100704.25
2022-08-17T16:31:10.318Z,100702.03
2022-08-17T16:32:42.480Z,100705.28
2022-08-17T16:34:17.549Z,100700.72
2022-08-17T16:35:50.296Z,100704.06
2022-08-17T16:37:22.129Z,100703.69
2022-08-17T16:38:53.844Z,100694.19
2022-08-17T16:40:29.287Z,100688.06
2022-08-17T16:42:04.874Z,100686.72
2022-08-17T16:43:37.964Z,100691.53
2022-08-17T16:45:13.686Z,100684.47
2022-08-17T16:46:47.232Z,100689.34
2022-08-17T16:48:19.712Z,100690.38
2022-08-17T16:49:51.412Z,100689.88
2022-08-17T16:51:23.155Z,100695.25
2022-08-17T16:53:03.022Z,100692.72
2022-08-17T16:54:37.590Z,100696.75
2022-08-17T16:56:09.301Z,100682.44
2022-08-17T16:57:47.514Z,100692.22
2022-08-17T16:59:30.875Z,100691.56
2022-08-17T17:01:03.695Z,100693.75
2022-08-17T17:02:37.865Z,100698.63
2022-08-17T17:04:14.722Z,100695.09
2022-08-17T17:06:03.678Z,100695.94
2022-08-17T17:07:49.890Z,100696.13
2022-08-17T17:09:27.845Z,100703.53
2022-08-17T17:11:13.868Z,100691.03
2022-08-17T17:13:01.629Z,100685.47
2022-08-17T17:14:42.059Z,100698.13
2022-08-17T17:16:21.539Z,100700.31
2022-08-17T17:17:55.577Z,100701.81
2022-08-17T17:19:37.245Z,100702.88
2022-08-17T17:21:14.086Z,100699.19
2022-08-17T17:22:49.056Z,100699.75
2022-08-17T17:24:28.860Z,100697.50
2022-08-17T17:26:11.536Z,100696.97
2022-08-17T17:27:54.657Z,100706.03
2022-08-17T17:29:47.378Z,100707.72
2022-08-17T17:31:25.323Z,100703.69
2022-08-17T17:33:03.517Z,100705.44
2022-08-17T17:34:38.002Z,100701.09
2022-08-17T17:36:24.140Z,100697.31
2022-08-17T17:37:57.347Z,100701.59
2022-08-17T17:39:44.158Z,100701.16
2022-08-17T17:41:25.445Z,100699.53
2022-08-17T17:43:14.184Z,100702.41
2022-08-17T17:45:08.324Z,100702.53
2022-08-17T17:46:49.552Z,100706.84
2022-08-17T17:48:21.410Z,100710.91
2022-08-17T17:49:53.153Z,100713.09
2022-08-17T17:52:09.177Z,100709.78
2022-08-17T17:53:43.055Z,100718.59
2022-08-17T17:55:35.354Z,100714.94
2022-08-17T17:57:21.417Z,100730.78
2022-08-17T17:58:59.960Z,100728.44
2022-08-17T18:00:38.565Z,100735.53
2022-08-17T18:02:44.276Z,100735.00
2022-08-17T18:04:32.596Z,100724.53
2022-08-17T18:06:15.087Z,100723.31
2022-08-17T18:07:54.283Z,100723.63
2022-08-17T18:09:40.018Z,100719.47
2022-08-17T18:11:24.544Z,100723.22
2022-08-17T18:13:07.954Z,100725.97
2022-08-17T18:15:00.986Z,100726.63
2022-08-17T18:16:32.969Z,100725.63
2022-08-17T18:18:39.886Z,100721.59
2022-08-17T18:20:11.765Z,100725.31
2022-08-17T18:21:48.903Z,100729.28
2022-08-17T18:23:27.075Z,100736.50
2022-08-17T18:25:00.165Z,100734.06
2022-08-17T18:26:49.989Z,100743.13
2022-08-17T18:28:30.397Z,100744.28
2022-08-17T18:30:32.507Z,100739.19
2022-08-17T18:32:32.075Z,100737.88
2022-08-17T18:34:45.812Z,100737.66
2022-08-17T18:36:28.039Z,100747.03
2022-08-17T18:38:20.657Z,100750.03
2022-08-17T18:39:55.902Z,100743.53
2022-08-17T18:41:30.366Z,100744.53
2022-08-17T18:43:14.895Z,100746.53
2022-08-17T18:44:48.768Z,100757.19
2022-08-17T18:46:29.745Z,100758.19
2022-08-17T18:48:02.266Z,100753.78
2022-08-17T18:49:36.195Z,100757.47
2022-08-17T18:51:39.911Z,100756.50